EDAC/ADC METAR and TAF weather

Enter ICAO airport designator
Station Type Date Time Source
EDAC METAR 2020/11/27 02:50 UTC NOAA

EDAC 270250Z AUTO 17004KT 9999 // BKN075/// 00/M01 Q1021


Station Type Date Time Source
EDAC Decoded METAR 2020/11/27 02:50 UTC NOAA

Altenburg Nobitz, Germany (EDAC) 50-58N 012-30E
Nov 26, 2020 - 09:50 PM EST / 2020.11.27 0250 UTC
Wind: from the S (170 degrees) at 5 MPH (4 KT):0
Visibility: greater than 7 mile(s):0
Sky conditions: mostly cloudy
Temperature: 32 F (0 C)
Windchill: 26 F (-3 C):1
Dew Point: 30 F (-1 C)
Relative Humidity: 92%
Pressure (altimeter): 30.15 in. Hg (1021 hPa)
ob: EDAC 270250Z AUTO 17004KT 9999 // BKN075/// 00/M01 Q1021
cycle: 3

Station Type Date Time Source
EDAC TAF UTC NOAA

Error!

Example: see airport list